Ímóti Sřrvági

Vevmynd ímóti Sřrvági

Terminalur Ímóti Miđvági


Veđriđ á flogvřllinum (metar):

EKVG 232350Z AUTO 00000KT 9999NDV NCD 02/M01 Q1024

METAR / TAF frá DMI fyri Vágar                      Veđurtíđindi frá Vága Floghavn

Atlantic Airways

Atlantic Airways heimasíđa

Tíđindi    .

26. januar 2015
Áheitan viđvíkjandi lasaraljós

Veđriđ

Kunning

Vevmyndir

Terminalur